createdAt,value
2022-08-22T00:01:54.507Z,18.20
2022-08-22T00:02:45.055Z,22.30
2022-08-22T00:02:58.750Z,19.30
2022-08-22T00:03:00.888Z,20.10
2022-08-22T00:04:37.586Z,18.20
2022-08-22T00:07:19.102Z,18.20
2022-08-22T00:09:59.822Z,18.20
2022-08-22T00:12:36.376Z,18.10
2022-08-22T00:15:35.422Z,18.00
2022-08-22T00:18:11.169Z,17.90
2022-08-22T00:20:47.909Z,17.90
2022-08-22T00:23:24.858Z,17.90
2022-08-22T00:26:00.335Z,17.80
2022-08-22T00:28:37.094Z,17.70
2022-08-22T00:31:24.379Z,17.60
2022-08-22T00:34:02.353Z,17.50
2022-08-22T00:36:43.522Z,17.40
2022-08-22T00:39:22.428Z,17.30
2022-08-22T00:42:31.386Z,17.30
2022-08-22T00:45:59.612Z,17.20
2022-08-22T00:49:04.010Z,17.10
2022-08-22T00:52:05.758Z,16.80
2022-08-22T00:55:03.181Z,16.50
2022-08-22T00:58:17.343Z,16.30
2022-08-22T01:00:53.987Z,16.20
2022-08-22T01:04:01.430Z,16.00
2022-08-22T01:06:46.791Z,15.90
2022-08-22T01:09:33.241Z,15.90
2022-08-22T01:12:39.739Z,15.80
2022-08-22T01:15:14.580Z,15.60
2022-08-22T01:18:29.059Z,15.40
2022-08-22T01:21:55.951Z,15.20
2022-08-22T01:25:26.222Z,15.20
2022-08-22T01:28:55.266Z,15.30
2022-08-22T01:32:29.230Z,15.30
2022-08-22T01:35:20.371Z,15.30
2022-08-22T01:38:20.963Z,15.30
2022-08-22T01:41:33.384Z,15.40
2022-08-22T01:44:29.022Z,15.40
2022-08-22T01:47:07.238Z,15.40
2022-08-22T01:49:45.146Z,15.50
2022-08-22T01:52:29.966Z,15.50
2022-08-22T01:55:07.768Z,15.50
2022-08-22T01:57:53.203Z,15.40
2022-08-22T02:00:35.027Z,15.20
2022-08-22T02:03:26.579Z,15.20
2022-08-22T02:06:07.243Z,15.10
2022-08-22T02:09:00.023Z,15.00
2022-08-22T02:11:44.392Z,14.90
2022-08-22T02:14:36.570Z,14.90
2022-08-22T02:17:25.797Z,14.90
2022-08-22T02:20:11.391Z,14.80
2022-08-22T02:22:55.143Z,14.80
2022-08-22T02:25:32.682Z,14.70
2022-08-22T02:28:11.125Z,14.70
2022-08-22T02:30:55.960Z,14.70
2022-08-22T02:33:34.927Z,14.60
2022-08-22T02:36:14.379Z,14.50
2022-08-22T02:38:58.416Z,14.50
2022-08-22T02:41:36.083Z,14.50
2022-08-22T02:44:18.817Z,14.50
2022-08-22T02:46:57.018Z,14.50
2022-08-22T02:49:34.452Z,14.50
2022-08-22T02:52:13.165Z,14.50
2022-08-22T02:54:49.744Z,14.50
2022-08-22T02:57:31.432Z,14.50
2022-08-22T03:00:30.694Z,14.40
2022-08-22T03:03:15.891Z,14.30
2022-08-22T03:06:01.663Z,14.20
2022-08-22T03:08:33.438Z,14.20
2022-08-22T03:11:19.076Z,14.10
2022-08-22T03:14:04.411Z,14.00
2022-08-22T03:16:45.638Z,13.90
2022-08-22T03:19:21.297Z,13.80
2022-08-22T03:21:59.359Z,13.70
2022-08-22T03:24:40.494Z,13.70
2022-08-22T03:27:32.423Z,13.60
2022-08-22T03:30:12.228Z,13.60
2022-08-22T03:32:55.776Z,13.50
2022-08-22T03:35:38.395Z,13.30
2022-08-22T03:38:21.665Z,13.20
2022-08-22T03:41:28.733Z,13.20
2022-08-22T03:44:46.420Z,13.20
2022-08-22T03:47:59.818Z,13.20
2022-08-22T03:50:54.577Z,13.00
2022-08-22T03:54:04.245Z,12.90
2022-08-22T03:57:44.320Z,12.90
2022-08-22T04:00:56.659Z,12.80
2022-08-22T04:04:04.825Z,12.70
2022-08-22T04:07:04.087Z,12.60
2022-08-22T04:10:04.838Z,12.50
2022-08-22T04:13:05.687Z,12.50
2022-08-22T04:16:20.728Z,12.30
2022-08-22T04:19:20.396Z,12.20
2022-08-22T04:22:24.866Z,12.20
2022-08-22T04:25:08.036Z,12.20
2022-08-22T04:27:50.348Z,12.20
2022-08-22T04:30:27.355Z,12.10
2022-08-22T04:33:06.516Z,12.20
2022-08-22T04:35:42.843Z,12.30
2022-08-22T04:38:18.277Z,12.40
2022-08-22T04:40:55.629Z,12.30
2022-08-22T04:43:35.105Z,12.20
2022-08-22T04:46:11.945Z,12.10
2022-08-22T04:48:46.343Z,12.10
2022-08-22T04:51:24.243Z,12.10
2022-08-22T04:54:39.353Z,12.20
2022-08-22T04:57:25.973Z,12.30
2022-08-22T05:00:01.095Z,12.50
2022-08-22T05:02:29.756Z,12.60
2022-08-22T05:05:13.570Z,12.70
2022-08-22T05:07:50.198Z,12.70
2022-08-22T05:10:25.863Z,12.80
2022-08-22T05:13:00.564Z,12.90
2022-08-22T05:15:39.164Z,13.10
2022-08-22T05:18:12.356Z,13.20
2022-08-22T05:20:46.786Z,13.40
2022-08-22T05:23:28.477Z,13.60
2022-08-22T05:26:02.693Z,13.70
2022-08-22T05:28:36.077Z,14.30
2022-08-22T05:31:08.963Z,15.20
2022-08-22T05:33:44.475Z,16.20
2022-08-22T05:36:18.503Z,16.90
2022-08-22T05:38:54.509Z,17.40
2022-08-22T05:41:27.785Z,18.00
2022-08-22T05:43:57.177Z,18.40
2022-08-22T05:46:40.806Z,18.80
2022-08-22T05:49:20.864Z,19.30
2022-08-22T05:52:02.251Z,19.80
2022-08-22T05:54:39.599Z,20.30
2022-08-22T05:57:21.843Z,20.70
2022-08-22T06:00:00.803Z,20.90
2022-08-22T06:02:52.237Z,21.40
2022-08-22T06:05:27.799Z,21.90
2022-08-22T06:08:03.658Z,22.40
2022-08-22T06:10:43.396Z,23.00
2022-08-22T06:13:28.096Z,23.90
2022-08-22T06:16:11.709Z,24.60
2022-08-22T06:18:44.662Z,24.80
2022-08-22T06:21:21.529Z,24.70
2022-08-22T06:23:57.453Z,25.10
2022-08-22T06:26:36.216Z,25.70
2022-08-22T06:29:08.544Z,25.90
2022-08-22T06:31:44.779Z,25.80
2022-08-22T06:34:18.539Z,25.90
2022-08-22T06:36:50.889Z,26.40
2022-08-22T06:39:24.489Z,26.70
2022-08-22T06:42:04.154Z,26.80
2022-08-22T06:44:37.008Z,26.70
2022-08-22T06:47:10.342Z,26.60
2022-08-22T06:49:40.756Z,26.60
2022-08-22T06:52:15.109Z,26.10
2022-08-22T06:54:50.935Z,26.00
2022-08-22T06:57:34.099Z,25.60
2022-08-22T07:00:10.216Z,26.00
2022-08-22T07:02:44.950Z,26.50
2022-08-22T07:05:20.187Z,27.00
2022-08-22T07:07:48.974Z,27.60
2022-08-22T07:10:18.499Z,28.00
2022-08-22T07:12:54.164Z,28.20
2022-08-22T07:15:34.362Z,28.50
2022-08-22T07:18:07.942Z,28.50
2022-08-22T07:20:41.980Z,28.80
2022-08-22T07:23:13.966Z,28.90
2022-08-22T07:25:54.352Z,29.20
2022-08-22T07:28:51.528Z,30.00
2022-08-22T07:31:38.263Z,30.20
2022-08-22T07:34:33.618Z,29.10
2022-08-22T07:37:12.858Z,29.20
2022-08-22T07:39:53.817Z,30.50
2022-08-22T07:42:33.393Z,30.90
2022-08-22T07:45:11.908Z,31.00
2022-08-22T07:48:01.788Z,32.70
2022-08-22T07:50:35.870Z,33.70
2022-08-22T07:53:18.463Z,33.80
2022-08-22T07:55:49.746Z,32.80
2022-08-22T07:58:20.804Z,33.00
2022-08-22T08:00:52.425Z,33.10
2022-08-22T08:03:26.322Z,33.80
2022-08-22T08:05:55.340Z,34.30
2022-08-22T08:08:32.473Z,34.10
2022-08-22T08:11:02.479Z,34.00
2022-08-22T08:13:36.564Z,33.70
2022-08-22T08:16:12.446Z,34.30
2022-08-22T08:18:41.215Z,35.30
2022-08-22T08:21:28.162Z,35.10
2022-08-22T08:23:57.700Z,34.30
2022-08-22T08:26:33.919Z,34.20
2022-08-22T08:29:03.760Z,34.10
2022-08-22T08:31:38.153Z,33.90
2022-08-22T08:34:19.822Z,34.00
2022-08-22T08:36:56.260Z,34.50
2022-08-22T08:39:35.511Z,35.30
2022-08-22T08:43:03.927Z,36.80
2022-08-22T08:46:07.643Z,38.40
2022-08-22T08:49:24.314Z,38.00
2022-08-22T08:52:35.462Z,38.30
2022-08-22T08:55:22.660Z,37.50
2022-08-22T08:58:17.659Z,37.80
2022-08-22T09:01:23.483Z,38.30
2022-08-22T09:04:40.682Z,38.50
2022-08-22T09:07:52.495Z,39.00
2022-08-22T09:11:03.051Z,38.70
2022-08-22T09:13:59.501Z,38.90
2022-08-22T09:16:51.791Z,38.80
2022-08-22T09:20:15.403Z,37.30
2022-08-22T09:23:36.569Z,36.00
2022-08-22T09:26:15.699Z,35.50
2022-08-22T09:28:55.072Z,36.50
2022-08-22T09:31:48.166Z,38.00
2022-08-22T09:34:30.979Z,38.80
2022-08-22T09:37:17.943Z,38.20
2022-08-22T09:40:03.943Z,38.70
2022-08-22T09:42:44.984Z,39.00
2022-08-22T09:45:45.419Z,39.30
2022-08-22T09:48:36.794Z,38.70
2022-08-22T09:51:32.173Z,38.80
2022-08-22T09:54:20.031Z,39.70
2022-08-22T09:57:03.120Z,39.80
2022-08-22T09:59:52.521Z,40.40
2022-08-22T10:02:36.350Z,39.60
2022-08-22T10:05:39.503Z,37.60
2022-08-22T10:08:27.215Z,37.10
2022-08-22T10:11:18.940Z,37.30
2022-08-22T10:14:00.676Z,38.70
2022-08-22T10:16:53.275Z,39.70
2022-08-22T10:19:31.893Z,40.30
2022-08-22T10:22:32.003Z,39.60
2022-08-22T10:25:20.813Z,39.60
2022-08-22T10:28:14.245Z,39.30
2022-08-22T10:31:02.087Z,37.80
2022-08-22T10:33:36.246Z,38.00
2022-08-22T10:36:14.130Z,38.20
2022-08-22T10:38:48.572Z,37.50
2022-08-22T10:41:31.524Z,36.80
2022-08-22T10:44:13.479Z,36.60
2022-08-22T10:46:50.927Z,36.90
2022-08-22T10:49:28.249Z,37.20
2022-08-22T10:52:15.861Z,36.70
2022-08-22T10:54:52.562Z,37.00
2022-08-22T10:57:41.284Z,38.30
2022-08-22T11:00:37.235Z,39.50
2022-08-22T11:03:24.757Z,39.60
2022-08-22T11:05:59.048Z,38.80
2022-08-22T11:08:55.895Z,38.90
2022-08-22T11:11:44.782Z,38.60
2022-08-22T11:14:59.621Z,38.00
2022-08-22T11:18:13.155Z,38.10
2022-08-22T11:20:57.272Z,39.10
2022-08-22T11:23:41.724Z,38.90
2022-08-22T11:26:29.298Z,37.30
2022-08-22T11:29:38.623Z,37.10
2022-08-22T11:32:18.720Z,36.80
2022-08-22T11:35:00.180Z,36.80
2022-08-22T11:37:56.352Z,36.30
2022-08-22T11:40:37.644Z,36.60
2022-08-22T11:43:49.121Z,36.70
2022-08-22T11:46:29.278Z,38.30
2022-08-22T11:49:27.021Z,38.30
2022-08-22T11:52:30.254Z,37.90
2022-08-22T11:55:22.931Z,38.40
2022-08-22T11:57:57.003Z,37.40
2022-08-22T12:00:40.020Z,36.60
2022-08-22T12:03:35.926Z,36.60
2022-08-22T12:06:21.596Z,37.60
2022-08-22T12:09:18.188Z,38.10
2022-08-22T12:12:05.901Z,38.40
2022-08-22T12:14:43.298Z,37.20
2022-08-22T12:17:55.099Z,36.10
2022-08-22T12:21:00.255Z,35.50
2022-08-22T12:24:19.042Z,35.30
2022-08-22T12:27:18.327Z,35.90
2022-08-22T12:30:14.377Z,36.60
2022-08-22T12:33:36.970Z,36.70
2022-08-22T12:37:08.860Z,37.60
2022-08-22T12:40:16.082Z,36.60
2022-08-22T12:43:24.870Z,35.10
2022-08-22T12:46:18.394Z,34.00
2022-08-22T12:49:24.466Z,34.70
2022-08-22T12:52:13.119Z,35.70
2022-08-22T12:55:19.183Z,36.10
2022-08-22T12:58:02.268Z,37.20
2022-08-22T13:00:35.499Z,36.70
2022-08-22T13:03:12.264Z,36.60
2022-08-22T13:05:52.369Z,36.60
2022-08-22T13:08:34.215Z,37.20
2022-08-22T13:11:22.591Z,37.70
2022-08-22T13:14:00.096Z,39.10
2022-08-22T13:16:40.745Z,39.50
2022-08-22T13:19:22.680Z,37.60
2022-08-22T13:22:00.577Z,36.80
2022-08-22T13:24:40.065Z,36.50
2022-08-22T13:27:27.124Z,36.70
2022-08-22T13:30:06.411Z,36.50
2022-08-22T13:32:44.394Z,35.20
2022-08-22T13:35:24.983Z,34.40
2022-08-22T13:38:02.918Z,33.80
2022-08-22T13:40:34.974Z,32.70
2022-08-22T13:43:11.168Z,32.70
2022-08-22T13:45:51.183Z,33.10
2022-08-22T13:48:28.347Z,33.90
2022-08-22T13:51:08.073Z,35.10
2022-08-22T13:53:58.026Z,34.80
2022-08-22T13:56:47.129Z,33.60
2022-08-22T13:59:49.751Z,32.40
2022-08-22T14:02:43.305Z,31.60
2022-08-22T14:05:22.636Z,31.20
2022-08-22T14:08:12.968Z,32.10
2022-08-22T14:10:54.940Z,33.40
2022-08-22T14:13:41.964Z,34.50
2022-08-22T14:16:20.827Z,34.80
2022-08-22T14:18:55.808Z,35.00
2022-08-22T14:21:40.697Z,35.70
2022-08-22T14:24:20.231Z,36.10
2022-08-22T14:27:05.654Z,36.30
2022-08-22T14:29:45.182Z,35.90
2022-08-22T14:32:41.782Z,35.90
2022-08-22T14:35:34.991Z,35.40
2022-08-22T14:38:29.966Z,35.60
2022-08-22T14:41:05.829Z,36.20
2022-08-22T14:43:54.590Z,36.20
2022-08-22T14:46:31.550Z,34.90
2022-08-22T14:49:48.498Z,34.40
2022-08-22T14:52:35.461Z,34.40
2022-08-22T14:55:19.744Z,33.90
2022-08-22T14:57:55.322Z,33.90
2022-08-22T15:00:35.136Z,33.90
2022-08-22T15:03:21.448Z,33.70
2022-08-22T15:05:53.270Z,33.40
2022-08-22T15:08:32.250Z,33.40
2022-08-22T15:11:20.608Z,33.20
2022-08-22T15:14:01.143Z,33.10
2022-08-22T15:16:36.778Z,33.30
2022-08-22T15:19:27.446Z,33.40
2022-08-22T15:22:13.759Z,33.60
2022-08-22T15:24:45.944Z,33.90
2022-08-22T15:27:20.043Z,34.00
2022-08-22T15:29:55.584Z,34.30
2022-08-22T15:32:29.099Z,34.50
2022-08-22T15:35:08.675Z,34.50
2022-08-22T15:37:55.453Z,34.30
2022-08-22T15:40:40.474Z,34.10
2022-08-22T15:43:35.355Z,34.00
2022-08-22T15:46:34.113Z,33.90
2022-08-22T15:49:07.296Z,33.70
2022-08-22T15:51:46.426Z,33.20
2022-08-22T15:54:24.902Z,33.10
2022-08-22T15:57:23.442Z,33.30
2022-08-22T15:59:57.619Z,33.40
2022-08-22T16:02:35.351Z,32.90
2022-08-22T16:05:26.035Z,32.60
2022-08-22T16:08:05.931Z,32.30
2022-08-22T16:10:40.668Z,32.10
2022-08-22T16:13:43.044Z,32.10
2022-08-22T16:16:53.562Z,32.10
2022-08-22T16:19:25.347Z,32.10
2022-08-22T16:22:17.535Z,31.90
2022-08-22T16:25:10.603Z,31.90
2022-08-22T16:27:58.566Z,32.00
2022-08-22T16:30:39.558Z,31.80
2022-08-22T16:33:18.459Z,31.60
2022-08-22T16:36:46.158Z,31.50
2022-08-22T16:39:38.476Z,31.30
2022-08-22T16:42:35.425Z,31.30
2022-08-22T16:45:17.125Z,31.10
2022-08-22T16:47:57.888Z,30.80
2022-08-22T16:50:36.637Z,30.70
2022-08-22T16:53:32.415Z,30.80
2022-08-22T16:56:27.687Z,30.70
2022-08-22T16:59:47.992Z,30.50
2022-08-22T17:02:57.363Z,30.40
2022-08-22T17:05:51.552Z,30.30
2022-08-22T17:08:54.446Z,30.10
2022-08-22T17:11:39.998Z,29.80
2022-08-22T17:14:24.571Z,29.50
2022-08-22T17:17:23.684Z,29.10
2022-08-22T17:20:13.370Z,28.70
2022-08-22T17:22:53.805Z,28.40
2022-08-22T17:25:34.849Z,28.60
2022-08-22T17:28:34.336Z,29.00
2022-08-22T17:31:13.871Z,29.50
2022-08-22T17:34:03.767Z,29.70
2022-08-22T17:36:53.668Z,29.80
2022-08-22T17:39:51.931Z,30.00
2022-08-22T17:42:52.081Z,30.10
2022-08-22T17:45:33.783Z,30.20
2022-08-22T17:48:15.233Z,30.20
2022-08-22T17:50:52.531Z,30.40
2022-08-22T17:53:37.240Z,30.50
2022-08-22T17:56:25.503Z,30.00
2022-08-22T17:59:03.531Z,29.10
2022-08-22T18:01:46.944Z,28.40
2022-08-22T18:04:29.430Z,27.90
2022-08-22T18:07:19.639Z,27.50
2022-08-22T18:09:57.682Z,27.00
2022-08-22T18:12:34.646Z,26.50
2022-08-22T18:15:12.343Z,26.00
2022-08-22T18:17:49.069Z,25.50
2022-08-22T18:20:27.011Z,25.20
2022-08-22T18:23:01.326Z,25.00
2022-08-22T18:25:41.706Z,24.50
2022-08-22T18:28:25.094Z,24.20
2022-08-22T18:31:02.017Z,23.80
2022-08-22T18:33:38.966Z,23.60
2022-08-22T18:36:23.530Z,23.10
2022-08-22T18:39:03.269Z,22.60
2022-08-22T18:41:43.954Z,22.30
2022-08-22T18:44:21.931Z,22.20
2022-08-22T18:46:54.065Z,22.00
2022-08-22T18:49:48.207Z,21.80
2022-08-22T18:52:39.452Z,21.70
2022-08-22T18:55:28.429Z,21.40
2022-08-22T18:58:36.879Z,21.40
2022-08-22T19:01:42.156Z,21.50
2022-08-22T19:04:53.369Z,21.40
2022-08-22T19:07:49.767Z,21.30
2022-08-22T19:10:43.655Z,21.20
2022-08-22T19:13:41.562Z,21.20
2022-08-22T19:16:42.717Z,21.10
2022-08-22T19:19:17.790Z,21.20
2022-08-22T19:22:24.582Z,21.10
2022-08-22T19:25:16.910Z,21.30
2022-08-22T19:27:48.256Z,21.30
2022-08-22T19:30:47.757Z,21.40
2022-08-22T19:33:34.266Z,21.60
2022-08-22T19:36:11.947Z,21.60
2022-08-22T19:39:01.781Z,21.50
2022-08-22T19:41:52.870Z,21.40
2022-08-22T19:44:39.825Z,21.20
2022-08-22T19:47:30.510Z,21.20
2022-08-22T19:50:09.827Z,21.10
2022-08-22T19:53:07.544Z,21.10
2022-08-22T19:56:03.860Z,20.90
2022-08-22T19:58:50.330Z,20.70
2022-08-22T20:01:47.066Z,20.50
2022-08-22T20:04:41.388Z,20.30
2022-08-22T20:07:27.302Z,20.30
2022-08-22T20:10:15.127Z,20.20
2022-08-22T20:13:02.050Z,20.00
2022-08-22T20:15:34.283Z,19.90
2022-08-22T20:21:01.648Z,19.80
2022-08-22T20:23:33.079Z,19.90
2022-08-22T20:26:02.214Z,19.80
2022-08-22T20:28:48.866Z,19.80
2022-08-22T20:31:24.948Z,19.90
2022-08-22T20:34:03.167Z,19.80
2022-08-22T20:36:33.207Z,19.80
2022-08-22T20:39:09.269Z,19.70
2022-08-22T20:41:41.866Z,19.40
2022-08-22T20:44:19.379Z,19.20
2022-08-22T20:46:55.982Z,19.10
2022-08-22T20:49:29.492Z,18.90
2022-08-22T20:52:05.753Z,18.70
2022-08-22T20:54:38.663Z,18.60
2022-08-22T20:57:18.637Z,18.40
2022-08-22T20:59:54.527Z,18.30
2022-08-22T21:02:28.517Z,18.10
2022-08-22T21:05:02.183Z,17.90
2022-08-22T21:07:34.824Z,17.90
2022-08-22T21:10:24.444Z,18.10
2022-08-22T21:13:10.681Z,17.90
2022-08-22T21:15:43.043Z,17.90
2022-08-22T21:18:26.057Z,18.00
2022-08-22T21:20:54.665Z,17.80
2022-08-22T21:23:24.201Z,17.70
2022-08-22T21:25:59.083Z,17.70
2022-08-22T21:28:35.208Z,17.70
2022-08-22T21:31:13.732Z,17.60
2022-08-22T21:33:46.207Z,17.50
2022-08-22T21:36:19.088Z,17.40
2022-08-22T21:38:53.659Z,17.40
2022-08-22T21:41:32.755Z,17.40
2022-08-22T21:44:27.496Z,17.30
2022-08-22T21:46:57.049Z,17.20
2022-08-22T21:49:30.899Z,17.10
2022-08-22T21:51:58.983Z,17.00
2022-08-22T21:54:42.231Z,17.00
2022-08-22T21:57:35.391Z,16.90
2022-08-22T22:00:11.027Z,17.00
2022-08-22T22:02:42.273Z,16.90
2022-08-22T22:05:14.995Z,16.80
2022-08-22T22:07:46.782Z,16.70
2022-08-22T22:10:19.708Z,16.70
2022-08-22T22:12:51.844Z,16.60
2022-08-22T22:15:25.293Z,16.60
2022-08-22T22:17:54.610Z,16.40
2022-08-22T22:20:26.188Z,16.20
2022-08-22T22:22:54.566Z,16.20
2022-08-22T22:25:38.876Z,16.20
2022-08-22T22:28:14.075Z,16.10
2022-08-22T22:30:44.955Z,16.10
2022-08-22T22:33:13.247Z,16.10
2022-08-22T22:35:42.466Z,16.10
2022-08-22T22:38:10.855Z,16.00
2022-08-22T22:40:41.449Z,15.90
2022-08-22T22:43:11.104Z,15.80
2022-08-22T22:45:41.021Z,15.80
2022-08-22T22:48:09.563Z,15.80
2022-08-22T22:50:40.876Z,15.80
2022-08-22T22:53:09.529Z,15.80
2022-08-22T22:55:41.700Z,15.60
2022-08-22T22:58:10.514Z,15.50
2022-08-22T23:00:38.879Z,15.50
2022-08-22T23:03:07.605Z,15.40
2022-08-22T23:05:36.454Z,15.40
2022-08-22T23:08:06.017Z,15.40
2022-08-22T23:10:34.497Z,15.40
2022-08-22T23:13:06.600Z,15.30
2022-08-22T23:15:34.780Z,15.10
2022-08-22T23:18:02.842Z,15.00
2022-08-22T23:20:31.106Z,15.10
2022-08-22T23:22:59.856Z,15.10
2022-08-22T23:25:28.071Z,15.10
2022-08-22T23:27:57.351Z,15.10
2022-08-22T23:30:26.864Z,15.00
2022-08-22T23:32:55.731Z,15.00
2022-08-22T23:35:23.818Z,15.00
2022-08-22T23:37:52.695Z,15.00
2022-08-22T23:40:21.089Z,15.00
2022-08-22T23:42:49.239Z,15.00
2022-08-22T23:45:17.441Z,15.10
2022-08-22T23:47:47.019Z,15.10
2022-08-22T23:50:15.092Z,15.00
2022-08-22T23:52:43.180Z,14.90
2022-08-22T23:55:11.521Z,14.80
2022-08-22T23:57:39.600Z,14.70
